createdAt,value
2022-09-18T00:00:05.525Z,19.15
2022-09-18T00:02:31.920Z,19.16
2022-09-18T00:04:58.204Z,19.15
2022-09-18T00:07:24.536Z,19.13
2022-09-18T00:09:50.890Z,19.13
2022-09-18T00:12:17.226Z,19.12
2022-09-18T00:14:43.568Z,19.08
2022-09-18T00:17:09.900Z,19.08
2022-09-18T00:19:36.219Z,19.07
2022-09-18T00:22:02.575Z,19.09
2022-09-18T00:24:28.916Z,19.02
2022-09-18T00:26:55.255Z,18.99
2022-09-18T00:29:21.592Z,18.99
2022-09-18T00:31:47.961Z,18.92
2022-09-18T00:34:14.251Z,18.89
2022-09-18T00:36:40.584Z,18.86
2022-09-18T00:39:06.923Z,18.84
2022-09-18T00:41:33.280Z,18.77
2022-09-18T00:43:59.627Z,18.73
2022-09-18T00:46:25.997Z,18.71
2022-09-18T00:48:52.294Z,18.71
2022-09-18T00:51:18.630Z,18.66
2022-09-18T00:53:44.975Z,18.62
2022-09-18T00:56:11.291Z,18.58
2022-09-18T00:58:37.693Z,18.55
2022-09-18T01:01:04.056Z,18.50
2022-09-18T01:03:30.308Z,18.46
2022-09-18T01:05:56.664Z,18.42
2022-09-18T01:08:22.976Z,18.38
2022-09-18T01:10:49.315Z,18.34
2022-09-18T01:13:15.658Z,18.32
2022-09-18T01:15:42.058Z,18.27
2022-09-18T01:18:08.326Z,18.22
2022-09-18T01:20:34.666Z,18.15
2022-09-18T01:23:00.975Z,18.09
2022-09-18T01:25:27.320Z,18.02
2022-09-18T01:27:53.632Z,17.98
2022-09-18T01:30:19.958Z,17.92
2022-09-18T01:32:46.298Z,17.88
2022-09-18T01:35:30.146Z,17.79
2022-09-18T01:37:38.951Z,17.76
2022-09-18T01:40:05.320Z,17.71
2022-09-18T01:42:31.608Z,17.62
2022-09-18T01:44:57.954Z,17.56
2022-09-18T01:47:24.309Z,17.51
2022-09-18T01:49:50.629Z,17.45
2022-09-18T01:52:17.006Z,17.39
2022-09-18T01:54:43.365Z,17.36
2022-09-18T01:57:09.681Z,17.31
2022-09-18T01:59:36.002Z,17.28
2022-09-18T02:02:02.513Z,17.27
2022-09-18T02:04:28.678Z,17.23
2022-09-18T02:06:55.014Z,17.15
2022-09-18T02:09:21.333Z,17.07
2022-09-18T02:11:47.672Z,17.06
2022-09-18T02:14:14.015Z,17.06
2022-09-18T02:16:40.325Z,17.00
2022-09-18T02:19:06.802Z,16.95
2022-09-18T02:21:33.116Z,16.92
2022-09-18T02:23:59.510Z,16.87
2022-09-18T02:26:25.796Z,16.86
2022-09-18T02:28:52.133Z,16.84
2022-09-18T02:31:18.502Z,16.82
2022-09-18T02:33:44.792Z,16.76
2022-09-18T02:36:11.126Z,16.73
2022-09-18T02:38:37.469Z,16.72
2022-09-18T02:41:03.800Z,16.71
2022-09-18T02:43:30.176Z,16.67
2022-09-18T02:45:56.507Z,16.66
2022-09-18T02:48:22.824Z,16.64
2022-09-18T02:50:49.164Z,16.65
2022-09-18T02:53:15.540Z,16.63
2022-09-18T02:55:41.851Z,16.58
2022-09-18T02:58:08.171Z,16.58
2022-09-18T03:00:34.505Z,16.57
2022-09-18T03:03:00.877Z,16.53
2022-09-18T03:05:27.157Z,16.49
2022-09-18T03:07:53.520Z,16.44
2022-09-18T03:10:19.832Z,16.44
2022-09-18T03:12:46.176Z,16.39
2022-09-18T03:15:12.512Z,16.34
2022-09-18T03:17:38.852Z,16.31
2022-09-18T03:20:05.182Z,16.29
2022-09-18T03:22:31.541Z,16.27
2022-09-18T03:24:57.874Z,16.23
2022-09-18T03:27:24.193Z,16.24
2022-09-18T03:29:50.549Z,16.26
2022-09-18T03:32:16.863Z,16.23
2022-09-18T03:34:43.178Z,16.20
2022-09-18T03:37:09.558Z,16.19
2022-09-18T03:39:35.890Z,16.20
2022-09-18T03:42:02.207Z,16.18
2022-09-18T03:44:28.525Z,16.18
2022-09-18T03:46:54.901Z,16.21
2022-09-18T03:49:21.172Z,16.23
2022-09-18T03:51:47.515Z,16.19
2022-09-18T03:54:13.830Z,16.12
2022-09-18T03:56:40.149Z,16.07
2022-09-18T03:59:06.499Z,16.07
2022-09-18T04:01:32.885Z,16.07
2022-09-18T04:03:59.171Z,16.04
2022-09-18T04:06:25.491Z,16.00
2022-09-18T04:08:51.834Z,16.00
2022-09-18T04:11:18.148Z,15.93
2022-09-18T04:13:44.505Z,15.90
2022-09-18T04:16:10.873Z,15.86
2022-09-18T04:18:37.184Z,15.88
2022-09-18T04:21:03.524Z,15.90
2022-09-18T04:23:29.858Z,15.86
2022-09-18T04:25:56.182Z,15.82
2022-09-18T04:28:22.518Z,15.84
2022-09-18T04:30:48.879Z,15.77
2022-09-18T04:33:16.075Z,15.71
2022-09-18T04:35:41.553Z,15.70
2022-09-18T04:38:07.891Z,15.69
2022-09-18T04:40:34.317Z,15.65
2022-09-18T04:43:00.601Z,15.65
2022-09-18T04:45:26.938Z,15.68
2022-09-18T04:47:53.266Z,15.65
2022-09-18T04:50:19.583Z,15.62
2022-09-18T04:52:45.967Z,15.63
2022-09-18T04:55:12.310Z,15.61
2022-09-18T04:57:38.638Z,15.52
2022-09-18T05:00:04.959Z,15.54
2022-09-18T05:02:31.333Z,15.54
2022-09-18T05:04:57.672Z,15.53
2022-09-18T05:07:23.982Z,15.52
2022-09-18T05:09:50.351Z,15.50
2022-09-18T05:12:16.664Z,15.51
2022-09-18T05:14:42.987Z,15.50
2022-09-18T05:17:09.376Z,15.48
2022-09-18T05:19:35.709Z,15.46
2022-09-18T05:22:02.022Z,15.48
2022-09-18T05:24:28.386Z,15.50
2022-09-18T05:26:54.714Z,15.48
2022-09-18T05:29:21.036Z,15.45
2022-09-18T05:31:47.432Z,15.43
2022-09-18T05:34:13.717Z,15.45
2022-09-18T05:36:40.026Z,15.47
2022-09-18T05:39:06.351Z,15.47
2022-09-18T05:41:32.690Z,15.48
2022-09-18T05:43:59.027Z,15.47
2022-09-18T05:46:25.377Z,15.46
2022-09-18T05:48:51.888Z,15.39
2022-09-18T05:51:18.220Z,15.36
2022-09-18T05:53:44.538Z,15.35
2022-09-18T05:56:10.891Z,15.35
2022-09-18T05:58:37.209Z,15.33
2022-09-18T06:01:03.526Z,15.34
2022-09-18T06:03:29.892Z,15.31
2022-09-18T06:05:56.221Z,15.30
2022-09-18T06:08:22.542Z,15.26
2022-09-18T06:10:48.907Z,15.26
2022-09-18T06:13:15.224Z,15.27
2022-09-18T06:15:41.562Z,15.28
2022-09-18T06:18:07.908Z,15.31
2022-09-18T06:20:34.249Z,15.34
2022-09-18T06:23:00.581Z,15.35
2022-09-18T06:25:26.899Z,15.35
2022-09-18T06:27:53.241Z,15.35
2022-09-18T06:30:19.557Z,15.30
2022-09-18T06:32:45.900Z,15.32
2022-09-18T06:35:12.234Z,15.33
2022-09-18T06:37:38.578Z,15.33
2022-09-18T06:40:05.100Z,15.34
2022-09-18T06:42:31.226Z,15.36
2022-09-18T06:44:57.585Z,15.37
2022-09-18T06:47:23.925Z,15.36
2022-09-18T06:49:50.240Z,15.35
2022-09-18T06:52:16.566Z,15.34
2022-09-18T06:54:42.885Z,15.34
2022-09-18T06:57:09.206Z,15.34
2022-09-18T06:59:35.518Z,15.34
2022-09-18T07:02:01.966Z,15.33
2022-09-18T07:04:28.195Z,15.35
2022-09-18T07:06:54.534Z,15.37
2022-09-18T07:09:20.850Z,15.40
2022-09-18T07:11:47.189Z,15.48
2022-09-18T07:14:13.525Z,15.56
2022-09-18T07:16:39.892Z,15.64
2022-09-18T07:19:06.212Z,15.74
2022-09-18T07:21:32.553Z,15.78
2022-09-18T07:23:58.888Z,15.86
2022-09-18T07:26:25.224Z,15.93
2022-09-18T07:28:51.561Z,16.09
2022-09-18T07:31:17.926Z,16.25
2022-09-18T07:33:44.199Z,16.40
2022-09-18T07:36:10.521Z,16.50
2022-09-18T07:38:36.838Z,16.59
2022-09-18T07:41:03.174Z,16.65
2022-09-18T07:43:29.493Z,16.67
2022-09-18T07:45:55.834Z,16.70
2022-09-18T07:48:22.173Z,16.72
2022-09-18T07:50:48.491Z,16.72
2022-09-18T07:53:14.863Z,16.74
2022-09-18T07:55:41.181Z,16.84
2022-09-18T07:58:07.515Z,16.97
2022-09-18T08:00:33.855Z,17.11
2022-09-18T08:03:00.294Z,17.23
2022-09-18T08:05:26.561Z,17.30
2022-09-18T08:07:52.873Z,17.38
2022-09-18T08:10:19.191Z,17.73
2022-09-18T08:12:45.531Z,18.26
2022-09-18T08:15:11.875Z,18.85
2022-09-18T08:17:38.210Z,19.37
2022-09-18T08:20:04.624Z,19.75
2022-09-18T08:22:30.940Z,20.00
2022-09-18T08:24:57.288Z,20.23
2022-09-18T08:27:23.796Z,20.48
2022-09-18T08:29:50.115Z,20.76
2022-09-18T08:32:16.452Z,20.99
2022-09-18T08:34:42.835Z,21.27
2022-09-18T08:37:09.170Z,21.42
2022-09-18T08:39:35.488Z,21.52
2022-09-18T08:42:01.829Z,21.67
2022-09-18T08:44:28.169Z,21.66
2022-09-18T08:46:54.589Z,21.57
2022-09-18T08:49:20.843Z,21.65
2022-09-18T08:51:47.161Z,21.93
2022-09-18T08:54:13.484Z,22.36
2022-09-18T08:56:39.823Z,22.73
2022-09-18T08:59:06.140Z,23.00
2022-09-18T09:01:32.500Z,23.20
2022-09-18T09:03:58.820Z,23.33
2022-09-18T09:06:25.158Z,23.47
2022-09-18T09:08:51.515Z,23.56
2022-09-18T09:11:17.833Z,23.64
2022-09-18T09:13:44.154Z,23.74
2022-09-18T09:16:10.574Z,23.83
2022-09-18T09:18:36.837Z,23.89
2022-09-18T09:21:03.154Z,24.00
2022-09-18T09:23:29.547Z,23.98
2022-09-18T09:25:55.879Z,24.04
2022-09-18T09:28:22.205Z,23.96
2022-09-18T09:30:48.530Z,23.77
2022-09-18T09:33:14.871Z,23.32
2022-09-18T09:35:41.237Z,22.84
2022-09-18T09:38:07.582Z,22.45
2022-09-18T09:40:33.949Z,22.14
2022-09-18T09:43:00.249Z,22.02
2022-09-18T09:45:26.568Z,21.98
2022-09-18T09:47:52.887Z,21.92
2022-09-18T09:50:19.282Z,21.80
2022-09-18T09:52:45.581Z,21.66
2022-09-18T09:55:11.918Z,21.58
2022-09-18T09:57:38.272Z,21.63
2022-09-18T10:00:04.588Z,21.79
2022-09-18T10:02:31.007Z,22.01
2022-09-18T10:04:57.258Z,21.89
2022-09-18T10:07:23.579Z,21.70
2022-09-18T10:09:49.918Z,21.51
2022-09-18T10:12:16.275Z,21.26
2022-09-18T10:14:42.598Z,21.09
2022-09-18T10:17:08.967Z,21.03
2022-09-18T10:19:35.278Z,20.91
2022-09-18T10:22:01.604Z,20.78
2022-09-18T10:24:27.996Z,20.70
2022-09-18T10:26:54.337Z,20.64
2022-09-18T10:29:20.666Z,20.59
2022-09-18T10:31:47.064Z,20.50
2022-09-18T10:34:13.348Z,20.50
2022-09-18T10:36:39.704Z,20.50
2022-09-18T10:39:06.080Z,20.83
2022-09-18T10:41:32.394Z,21.30
2022-09-18T10:43:58.711Z,21.71
2022-09-18T10:46:25.101Z,21.90
2022-09-18T10:48:51.370Z,22.11
2022-09-18T10:51:17.749Z,22.18
2022-09-18T10:53:44.080Z,22.20
2022-09-18T10:56:10.403Z,22.19
2022-09-18T10:58:36.757Z,22.14
2022-09-18T11:01:03.265Z,22.08
2022-09-18T11:03:29.436Z,22.03
2022-09-18T11:05:55.831Z,22.09
2022-09-18T11:08:22.176Z,22.21
2022-09-18T11:10:48.514Z,22.41
2022-09-18T11:13:14.856Z,22.58
2022-09-18T11:15:41.164Z,22.73
2022-09-18T11:18:07.500Z,22.80
2022-09-18T11:20:33.861Z,22.99
2022-09-18T11:23:00.302Z,23.14
2022-09-18T11:25:26.662Z,23.31
2022-09-18T11:27:52.956Z,23.41
2022-09-18T11:30:19.273Z,23.47
2022-09-18T11:32:45.617Z,23.50
2022-09-18T11:35:11.956Z,23.58
2022-09-18T11:37:38.296Z,23.73
2022-09-18T11:40:04.660Z,24.05
2022-09-18T11:42:30.959Z,24.28
2022-09-18T11:44:57.271Z,24.35
2022-09-18T11:47:23.660Z,24.36
2022-09-18T11:49:49.991Z,24.31
2022-09-18T11:52:16.334Z,24.21
2022-09-18T11:54:42.651Z,24.08
2022-09-18T11:57:08.995Z,23.95
2022-09-18T11:59:35.326Z,23.54
2022-09-18T12:02:01.707Z,23.11
2022-09-18T12:04:28.037Z,22.80
2022-09-18T12:06:54.356Z,22.67
2022-09-18T12:09:19.317Z,22.61
2022-09-18T12:11:45.687Z,22.47
2022-09-18T12:14:12.001Z,22.27
2022-09-18T12:16:38.390Z,22.18
2022-09-18T12:19:04.671Z,22.16
2022-09-18T12:21:30.987Z,22.13
2022-09-18T12:23:57.335Z,22.04
2022-09-18T12:26:23.659Z,21.90
2022-09-18T12:28:49.988Z,21.80
2022-09-18T12:31:16.343Z,21.79
2022-09-18T12:33:42.680Z,21.83
2022-09-18T12:36:09.024Z,22.10
2022-09-18T12:38:35.357Z,22.43
2022-09-18T12:41:02.367Z,22.70
2022-09-18T12:43:28.701Z,22.88
2022-09-18T12:45:55.077Z,23.03
2022-09-18T12:48:21.389Z,23.15
2022-09-18T12:50:47.704Z,23.24
2022-09-18T12:53:14.018Z,23.32
2022-09-18T12:55:40.400Z,23.36
2022-09-18T12:58:06.740Z,23.36
2022-09-18T13:00:33.105Z,23.38
2022-09-18T13:02:59.464Z,23.08
2022-09-18T13:05:25.717Z,21.85
2022-09-18T13:07:52.034Z,20.36
2022-09-18T13:10:18.382Z,20.08
2022-09-18T13:12:44.716Z,20.11
2022-09-18T13:15:11.051Z,19.96
2022-09-18T13:17:38.133Z,19.85
2022-09-18T13:20:04.455Z,19.64
2022-09-18T13:22:30.791Z,19.47
2022-09-18T13:24:57.167Z,19.32
2022-09-18T13:27:23.476Z,19.19
2022-09-18T13:29:49.796Z,19.07
2022-09-18T13:32:16.144Z,19.01
2022-09-18T13:34:42.465Z,18.95
2022-09-18T13:37:08.809Z,18.98
2022-09-18T13:39:55.331Z,18.96
2022-09-18T13:42:01.459Z,19.02
2022-09-18T13:44:27.799Z,19.28
2022-09-18T13:46:54.133Z,19.44
2022-09-18T13:49:20.489Z,19.27
2022-09-18T13:51:46.798Z,19.07
2022-09-18T13:54:13.117Z,18.91
2022-09-18T13:56:39.527Z,18.80
2022-09-18T13:59:05.844Z,18.64
2022-09-18T14:01:32.198Z,18.59
2022-09-18T14:03:58.511Z,18.57
2022-09-18T14:06:24.844Z,18.52
2022-09-18T14:08:51.231Z,18.45
2022-09-18T14:11:17.703Z,18.50
2022-09-18T14:13:43.873Z,18.44
2022-09-18T14:16:10.208Z,18.39
2022-09-18T14:18:36.509Z,18.36
2022-09-18T14:21:02.824Z,18.34
2022-09-18T14:23:29.186Z,18.34
2022-09-18T14:25:55.503Z,18.30
2022-09-18T14:28:21.847Z,18.23
2022-09-18T14:30:48.163Z,18.18
2022-09-18T14:33:14.513Z,18.12
2022-09-18T14:35:40.846Z,18.22
2022-09-18T14:38:07.188Z,18.19
2022-09-18T14:40:33.598Z,18.12
2022-09-18T14:42:59.870Z,18.16
2022-09-18T14:45:26.233Z,18.44
2022-09-18T14:47:52.557Z,18.62
2022-09-18T14:50:18.890Z,18.75
2022-09-18T14:52:45.207Z,18.79
2022-09-18T14:55:11.566Z,18.70
2022-09-18T14:57:37.912Z,18.73
2022-09-18T15:00:04.256Z,18.71
2022-09-18T15:02:30.595Z,18.62
2022-09-18T15:04:56.970Z,18.53
2022-09-18T15:07:23.290Z,18.48
2022-09-18T15:09:49.607Z,18.41
2022-09-18T15:12:15.967Z,18.34
2022-09-18T15:14:47.316Z,18.36
2022-09-18T15:17:08.625Z,18.45
2022-09-18T15:19:34.956Z,18.46
2022-09-18T15:22:01.283Z,18.37
2022-09-18T15:24:27.603Z,18.30
2022-09-18T15:26:56.285Z,18.22
2022-09-18T15:29:20.270Z,18.15
2022-09-18T15:31:46.670Z,18.12
2022-09-18T15:34:12.981Z,18.06
2022-09-18T15:36:39.302Z,17.99
2022-09-18T15:39:05.681Z,17.96
2022-09-18T15:41:32.019Z,17.92
2022-09-18T15:43:58.341Z,17.90
2022-09-18T15:46:24.739Z,17.94
2022-09-18T15:48:51.031Z,17.95
2022-09-18T15:51:17.376Z,17.87
2022-09-18T15:53:43.695Z,17.76
2022-09-18T15:56:10.016Z,17.70
2022-09-18T15:58:36.364Z,17.68
2022-09-18T16:01:02.818Z,17.64
2022-09-18T16:03:29.072Z,17.60
2022-09-18T16:05:55.391Z,17.58
2022-09-18T16:08:21.750Z,17.59
2022-09-18T16:10:48.096Z,17.56
2022-09-18T16:13:14.411Z,17.49
2022-09-18T16:15:40.768Z,17.42
2022-09-18T16:18:07.107Z,17.40
2022-09-18T16:20:33.456Z,17.36
2022-09-18T16:22:59.822Z,17.36
2022-09-18T16:25:26.161Z,17.35
2022-09-18T16:27:52.477Z,17.33
2022-09-18T16:30:18.865Z,17.28
2022-09-18T16:32:45.178Z,17.24
2022-09-18T16:35:11.499Z,17.21
2022-09-18T16:37:37.862Z,17.17
2022-09-18T16:40:04.298Z,17.12
2022-09-18T16:42:30.523Z,17.14
2022-09-18T16:44:56.851Z,17.16
2022-09-18T16:47:23.193Z,17.13
2022-09-18T16:49:49.573Z,17.10
2022-09-18T16:52:15.896Z,17.05
2022-09-18T16:54:42.218Z,17.01
2022-09-18T16:57:08.555Z,16.97
2022-09-18T16:59:34.878Z,16.92
2022-09-18T17:02:05.123Z,16.86
2022-09-18T17:04:27.557Z,16.78
2022-09-18T17:06:53.870Z,16.75
2022-09-18T17:09:20.205Z,16.72
2022-09-18T17:11:46.519Z,16.62
2022-09-18T17:14:12.885Z,16.53
2022-09-18T17:16:44.633Z,16.45
2022-09-18T17:19:05.533Z,16.49
2022-09-18T17:21:31.852Z,16.51
2022-09-18T17:23:58.182Z,16.49
2022-09-18T17:26:24.548Z,16.42
2022-09-18T17:28:50.889Z,16.33
2022-09-18T17:31:17.282Z,16.27
2022-09-18T17:33:43.577Z,16.27
2022-09-18T17:36:09.895Z,16.25
2022-09-18T17:38:36.229Z,16.20
2022-09-18T17:41:02.587Z,16.13
2022-09-18T17:43:28.928Z,16.04
2022-09-18T17:45:55.245Z,15.97
2022-09-18T17:48:21.573Z,15.96
2022-09-18T17:50:47.894Z,15.97
2022-09-18T17:53:14.239Z,15.91
2022-09-18T17:55:40.605Z,15.85
2022-09-18T17:58:06.945Z,15.79
2022-09-18T18:00:33.305Z,15.72
2022-09-18T18:02:59.669Z,15.67
2022-09-18T18:05:26.000Z,15.66
2022-09-18T18:07:52.338Z,15.64
2022-09-18T18:10:18.714Z,15.64
2022-09-18T18:12:45.032Z,15.59
2022-09-18T18:15:11.351Z,15.53
2022-09-18T18:17:37.674Z,15.50
2022-09-18T18:20:03.989Z,15.51
2022-09-18T18:22:30.333Z,15.50
2022-09-18T18:24:56.673Z,15.49
2022-09-18T18:27:22.994Z,15.43
2022-09-18T18:29:49.373Z,15.41
2022-09-18T18:32:15.719Z,15.41
2022-09-18T18:34:42.055Z,15.41
2022-09-18T18:37:08.380Z,15.37
2022-09-18T18:39:34.717Z,15.35
2022-09-18T18:42:01.040Z,15.28
2022-09-18T18:44:27.643Z,15.23
2022-09-18T18:46:54.006Z,15.18
2022-09-18T18:49:20.299Z,15.14
2022-09-18T18:51:46.662Z,15.15
2022-09-18T18:54:12.999Z,15.13
2022-09-18T18:56:39.318Z,15.12
2022-09-18T18:59:05.660Z,15.15
2022-09-18T19:01:32.250Z,15.15
2022-09-18T19:03:58.311Z,15.10
2022-09-18T19:06:24.653Z,15.02
2022-09-18T19:08:50.986Z,14.96
2022-09-18T19:11:17.330Z,14.90
2022-09-18T19:13:43.650Z,14.86
2022-09-18T19:16:10.023Z,14.82
2022-09-18T19:18:36.321Z,14.75
2022-09-18T19:21:02.637Z,14.74
2022-09-18T19:23:28.996Z,14.69
2022-09-18T19:25:55.316Z,14.65
2022-09-18T19:28:21.628Z,14.67
2022-09-18T19:30:48.013Z,14.63
2022-09-18T19:33:14.325Z,14.59
2022-09-18T19:35:40.666Z,14.55
2022-09-18T19:38:06.982Z,14.52
2022-09-18T19:40:33.424Z,14.48
2022-09-18T19:42:59.642Z,14.42
2022-09-18T19:45:25.999Z,14.37
2022-09-18T19:47:52.314Z,14.32
2022-09-18T19:50:18.655Z,14.26
2022-09-18T19:52:46.755Z,14.20
2022-09-18T19:55:11.347Z,14.16
2022-09-18T19:57:37.684Z,14.12
2022-09-18T20:00:04.070Z,14.11
2022-09-18T20:02:30.405Z,14.06
2022-09-18T20:04:56.726Z,14.04
2022-09-18T20:07:23.067Z,14.00
2022-09-18T20:09:49.422Z,13.93
2022-09-18T20:12:15.740Z,13.87
2022-09-18T20:14:42.066Z,13.80
2022-09-18T20:17:08.409Z,13.81
2022-09-18T20:19:34.726Z,13.77
2022-09-18T20:22:01.070Z,13.72
2022-09-18T20:24:27.405Z,13.71
2022-09-18T20:26:53.750Z,13.75
2022-09-18T20:29:20.096Z,13.73
2022-09-18T20:31:46.466Z,13.64
2022-09-18T20:34:12.748Z,13.60
2022-09-18T20:36:39.068Z,13.55
2022-09-18T20:39:05.393Z,13.51
2022-09-18T20:41:31.716Z,13.40
2022-09-18T20:43:58.071Z,13.39
2022-09-18T20:46:24.445Z,13.34
2022-09-18T20:48:50.725Z,13.27
2022-09-18T20:51:17.104Z,13.15
2022-09-18T20:53:43.423Z,13.14
2022-09-18T20:56:09.740Z,13.13
2022-09-18T20:58:36.100Z,13.12
2022-09-18T21:01:02.475Z,13.09
2022-09-18T21:03:28.775Z,13.06
2022-09-18T21:06:12.702Z,13.11
2022-09-18T21:08:21.412Z,13.19
2022-09-18T21:10:47.731Z,13.16
2022-09-18T21:13:14.115Z,13.14
2022-09-18T21:15:40.450Z,13.15
2022-09-18T21:18:06.774Z,13.09
2022-09-18T21:20:33.114Z,13.06
2022-09-18T21:22:59.501Z,13.02
2022-09-18T21:25:25.836Z,12.98
2022-09-18T21:27:52.154Z,12.97
2022-09-18T21:30:18.473Z,12.93
2022-09-18T21:32:44.834Z,12.89
2022-09-18T21:35:11.212Z,12.88
2022-09-18T21:37:37.522Z,12.84
2022-09-18T21:40:03.924Z,12.83
2022-09-18T21:42:30.181Z,12.80
2022-09-18T21:44:56.497Z,12.76
2022-09-18T21:47:22.815Z,12.74
2022-09-18T21:49:49.176Z,12.71
2022-09-18T21:52:15.512Z,12.72
2022-09-18T21:54:41.835Z,12.71
2022-09-18T21:57:08.171Z,12.66
2022-09-18T21:59:34.507Z,12.61
2022-09-18T22:02:00.921Z,12.58
2022-09-18T22:04:27.202Z,12.57
2022-09-18T22:06:53.527Z,12.56
2022-09-18T22:09:19.838Z,12.57
2022-09-18T22:11:46.194Z,12.56
2022-09-18T22:14:12.519Z,12.53
2022-09-18T22:16:38.897Z,12.49
2022-09-18T22:19:05.309Z,12.48
2022-09-18T22:21:31.570Z,12.47
2022-09-18T22:23:57.911Z,12.46
2022-09-18T22:26:24.250Z,12.46
2022-09-18T22:28:50.661Z,12.48
2022-09-18T22:31:16.973Z,12.38
2022-09-18T22:33:43.233Z,12.28
2022-09-18T22:36:09.572Z,12.25
2022-09-18T22:38:35.930Z,12.19
2022-09-18T22:41:02.272Z,12.15
2022-09-18T22:43:28.592Z,12.14
2022-09-18T22:45:54.934Z,12.14
2022-09-18T22:48:21.271Z,12.06
2022-09-18T22:50:47.609Z,11.97
2022-09-18T22:53:13.931Z,11.96
2022-09-18T22:55:40.245Z,11.95
2022-09-18T22:58:06.593Z,11.98
2022-09-18T23:00:32.928Z,11.94
2022-09-18T23:02:59.268Z,11.87
2022-09-18T23:05:25.607Z,11.85
2022-09-18T23:07:51.965Z,11.82
2022-09-18T23:10:18.303Z,11.80
2022-09-18T23:12:44.620Z,11.80
2022-09-18T23:15:10.962Z,11.81
2022-09-18T23:17:37.278Z,11.81
2022-09-18T23:20:03.606Z,11.82
2022-09-18T23:22:29.937Z,11.80
2022-09-18T23:24:56.280Z,11.70
2022-09-18T23:27:22.615Z,11.68
2022-09-18T23:29:48.950Z,11.68
2022-09-18T23:32:15.266Z,11.69
2022-09-18T23:34:41.622Z,11.67
2022-09-18T23:37:07.943Z,11.63
2022-09-18T23:39:34.279Z,11.60
2022-09-18T23:42:00.639Z,11.56
2022-09-18T23:44:26.919Z,11.54
2022-09-18T23:46:53.319Z,11.49
2022-09-18T23:49:19.580Z,11.47
2022-09-18T23:51:45.901Z,11.45
2022-09-18T23:54:12.241Z,11.43
2022-09-18T23:56:38.577Z,11.42
2022-09-18T23:59:04.914Z,11.42
